Time;durP1;ratioP1;P1;durP2;ratioP2;P2;SDS_P1;SDS_P2;PMS_P1;PMS_P2;Temp;Humidity;BMP_temperature;BMP_pressure;BME280_temperature;BME280_humidity;BME280_pressure;Samples;Min_cycle;Max_cycle;Signal;HPM_P1;HPM_P2
2022/03/08 00:02:17;;;;;;;9.68;4.78;;;5.20;78.30;;;;;;5035039;28;20141;-64
2022/03/08 00:04:43;;;;;;;8.90;4.55;;;5.20;78.50;;;;;;5037616;28;20519;-65
2022/03/08 00:07:08;;;;;;;7.30;4.18;;;5.20;78.50;;;;;;5033293;28;20133;-64
2022/03/08 00:09:35;;;;;;;7.60;4.70;;;5.20;78.60;;;;;;5033150;28;20045;-65
2022/03/08 00:12:02;;;;;;;9.52;4.50;;;5.20;78.70;;;;;;5040576;28;20055;-64
2022/03/08 00:14:27;;;;;;;7.22;3.85;;;5.20;78.80;;;;;;5032984;28;20113;-65
2022/03/08 00:16:53;;;;;;;9.77;5.68;;;5.20;78.90;;;;;;5052511;28;20413;-65
2022/03/08 00:19:18;;;;;;;11.98;6.95;;;5.10;79.00;;;;;;5036883;28;20031;-64
2022/03/08 00:21:43;;;;;;;13.50;7.38;;;5.10;79.00;;;;;;5051397;28;20087;-64
2022/03/08 00:24:09;;;;;;;12.45;6.50;;;5.10;79.20;;;;;;5053304;28;20029;-64
2022/03/08 00:26:35;;;;;;;9.75;4.93;;;5.10;79.30;;;;;;5051490;28;20029;-65
2022/03/08 00:29:01;;;;;;;8.27;4.47;;;5.10;79.40;;;;;;5053120;28;20024;-65
2022/03/08 00:31:26;;;;;;;7.80;4.28;;;5.10;79.50;;;;;;5050906;28;20070;-65
2022/03/08 00:33:52;;;;;;;6.90;4.35;;;5.10;79.60;;;;;;5052597;28;20055;-64
2022/03/08 00:36:18;;;;;;;7.85;4.53;;;5.10;79.60;;;;;;5051533;28;20036;-65
2022/03/08 00:38:43;;;;;;;8.65;4.25;;;5.00;79.70;;;;;;5052972;28;20152;-65
2022/03/08 00:41:09;;;;;;;7.22;4.32;;;5.00;79.90;;;;;;5050569;28;20039;-64
2022/03/08 00:43:34;;;;;;;6.85;4.20;;;4.90;80.00;;;;;;5052469;28;20082;-64
2022/03/08 00:46:00;;;;;;;7.15;3.97;;;4.90;80.20;;;;;;5051354;28;20109;-65
2022/03/08 00:48:25;;;;;;;6.00;3.95;;;4.90;80.30;;;;;;5051416;28;20036;-65
2022/03/08 00:50:51;;;;;;;6.68;4.20;;;4.80;80.40;;;;;;5051573;28;20118;-64
2022/03/08 00:53:16;;;;;;;8.30;4.25;;;4.90;80.40;;;;;;5052446;28;20025;-65
2022/03/08 00:55:42;;;;;;;7.45;3.60;;;4.90;80.50;;;;;;5041782;28;20056;-65
2022/03/08 00:58:07;;;;;;;9.15;4.05;;;4.90;80.60;;;;;;5032823;28;20026;-65
2022/03/08 01:00:35;;;;;;;8.25;5.43;;;4.90;80.70;;;;;;5023107;28;20047;-64
2022/03/08 01:03:01;;;;;;;12.07;6.35;;;4.90;80.80;;;;;;5051652;28;20049;-65
2022/03/08 01:05:28;;;;;;;11.57;5.60;;;4.90;80.90;;;;;;5051353;28;20583;-65
2022/03/08 01:07:54;;;;;;;8.48;5.15;;;4.90;81.10;;;;;;5033822;28;20056;-65
2022/03/08 01:10:22;;;;;;;10.10;5.20;;;4.80;81.10;;;;;;5048941;28;20074;-65
2022/03/08 01:12:48;;;;;;;8.85;5.28;;;4.80;81.30;;;;;;5033672;28;20044;-64
2022/03/08 01:15:15;;;;;;;7.95;4.97;;;4.80;81.40;;;;;;5037959;28;20025;-64
2022/03/08 01:17:42;;;;;;;8.63;4.50;;;4.80;81.50;;;;;;5052428;28;20135;-64
2022/03/08 01:20:09;;;;;;;7.63;4.50;;;4.80;81.60;;;;;;5049501;28;20037;-64
2022/03/08 01:22:35;;;;;;;7.85;4.22;;;4.80;81.60;;;;;;5052248;28;20455;-64
2022/03/08 01:25:01;;;;;;;6.68;4.05;;;4.80;81.80;;;;;;5050539;28;20469;-64
2022/03/08 01:27:26;;;;;;;7.43;4.35;;;4.80;81.90;;;;;;5052132;28;20091;-64
2022/03/08 01:29:52;;;;;;;10.50;5.20;;;4.80;82.00;;;;;;5050308;28;20072;-64
2022/03/08 01:32:17;;;;;;;14.52;6.75;;;4.70;82.10;;;;;;5051607;28;20056;-64
2022/03/08 01:34:43;;;;;;;10.07;5.97;;;4.70;82.20;;;;;;5049840;28;20032;-64
2022/03/08 01:37:10;;;;;;;11.25;6.00;;;4.70;82.30;;;;;;5051822;28;20466;-64
2022/03/08 01:39:36;;;;;;;9.07;4.88;;;4.70;82.50;;;;;;5036475;28;20514;-64
2022/03/08 01:42:10;;;;;;;12.02;5.93;;;4.70;82.60;;;;;;5031619;28;20044;-64
2022/03/08 01:44:35;;;;;;;10.70;5.40;;;4.60;82.80;;;;;;5034525;28;20037;-63
2022/03/08 01:47:01;;;;;;;9.43;5.15;;;4.70;82.80;;;;;;5031439;28;20361;-65
2022/03/08 01:49:26;;;;;;;9.32;5.25;;;4.60;82.90;;;;;;5033858;28;20020;-64
2022/03/08 01:51:52;;;;;;;9.98;4.75;;;4.60;83.60;;;;;;5050134;28;20029;-64
2022/03/08 01:54:18;;;;;;;12.65;6.05;;;4.50;83.20;;;;;;5051200;28;20029;-64
2022/03/08 01:56:44;;;;;;;8.98;5.28;;;4.60;83.40;;;;;;5017503;28;20607;-64
2022/03/08 01:59:10;;;;;;;10.98;5.55;;;4.60;83.50;;;;;;5031270;28;20508;-65
2022/03/08 02:01:35;;;;;;;6.32;4.00;;;4.50;83.60;;;;;;5049320;28;20037;-65
2022/03/08 02:04:01;;;;;;;6.60;3.85;;;4.60;83.90;;;;;;5050741;28;20055;-64
2022/03/08 02:06:28;;;;;;;6.47;4.28;;;4.50;84.00;;;;;;5048624;28;20395;-65
2022/03/08 02:08:53;;;;;;;8.05;3.97;;;4.50;84.20;;;;;;5033203;28;20028;-65
2022/03/08 02:11:20;;;;;;;7.63;4.40;;;4.40;84.20;;;;;;5048606;28;20033;-64
2022/03/08 02:13:45;;;;;;;7.95;4.38;;;4.50;84.40;;;;;;5043970;28;20029;-64
2022/03/08 02:16:11;;;;;;;7.35;4.18;;;4.50;84.50;;;;;;5035908;28;20031;-65
2022/03/08 02:18:36;;;;;;;8.32;4.18;;;4.40;84.60;;;;;;5039767;28;20078;-64
2022/03/08 02:21:06;;;;;;;8.85;4.60;;;4.40;84.70;;;;;;5039971;28;20021;-64
2022/03/08 02:23:32;;;;;;;8.57;4.25;;;4.40;85.00;;;;;;5049134;28;20029;-64
2022/03/08 02:25:57;;;;;;;8.95;4.88;;;4.40;85.00;;;;;;5050619;28;20132;-64
2022/03/08 02:28:23;;;;;;;7.47;4.63;;;4.40;85.30;;;;;;5044572;28;20045;-64
2022/03/08 02:30:48;;;;;;;10.40;5.43;;;4.40;85.30;;;;;;5031250;28;20539;-64
2022/03/08 02:33:14;;;;;;;7.45;4.38;;;4.40;85.40;;;;;;5041996;28;20056;-65
2022/03/08 02:35:39;;;;;;;7.70;4.30;;;4.40;85.50;;;;;;5051010;28;20056;-64
2022/03/08 02:38:06;;;;;;;8.98;5.35;;;4.40;85.60;;;;;;5049687;28;20035;-64
2022/03/08 02:40:38;;;;;;;13.25;4.88;;;4.30;85.70;;;;;;5050497;28;20021;-64
2022/03/08 02:43:07;;;;;;;11.07;5.25;;;4.30;86.00;;;;;;5048933;28;20029;-64
2022/03/08 02:45:32;;;;;;;9.65;4.50;;;4.30;86.20;;;;;;5050454;28;20037;-64
2022/03/08 02:47:58;;;;;;;8.38;4.88;;;4.20;86.20;;;;;;5049068;28;20028;-64
2022/03/08 02:50:24;;;;;;;10.38;4.88;;;4.20;87.30;;;;;;5050737;28;20036;-64
2022/03/08 02:52:52;;;;;;;11.15;5.10;;;4.10;87.00;;;;;;5049761;28;20045;-64
2022/03/08 02:55:21;;;;;;;10.43;5.45;;;4.10;87.00;;;;;;5050375;28;20063;-64
2022/03/08 02:57:47;;;;;;;9.80;4.53;;;4.00;87.40;;;;;;5049268;28;20028;-64
2022/03/08 03:00:15;;;;;;;10.20;5.07;;;4.00;87.30;;;;;;5044392;28;20053;-64
2022/03/08 03:02:41;;;;;;;9.07;5.68;;;4.00;88.00;;;;;;5046144;28;20443;-64
2022/03/08 03:05:07;;;;;;;9.18;4.50;;;4.00;87.80;;;;;;5030244;28;20078;-64
2022/03/08 03:07:33;;;;;;;8.32;4.70;;;4.00;87.90;;;;;;5044990;28;20044;-64
2022/03/08 03:09:59;;;;;;;8.77;5.03;;;3.90;87.90;;;;;;5043585;28;20384;-64
2022/03/08 03:12:25;;;;;;;7.40;4.63;;;4.00;88.00;;;;;;5048917;28;20025;-64
2022/03/08 03:14:50;;;;;;;8.82;5.35;;;4.00;88.20;;;;;;5048227;28;20456;-64
2022/03/08 03:17:19;;;;;;;9.07;4.88;;;3.90;88.10;;;;;;5050472;28;20484;-64
2022/03/08 03:19:44;;;;;;;6.70;4.15;;;4.00;88.40;;;;;;5048447;28;20024;-64
2022/03/08 03:22:10;;;;;;;8.35;4.20;;;3.90;88.40;;;;;;5050176;28;20033;-64
2022/03/08 03:24:36;;;;;;;6.88;4.75;;;4.00;88.40;;;;;;5037018;28;20111;-64
2022/03/08 03:27:01;;;;;;;8.10;4.47;;;4.00;88.40;;;;;;5050300;28;20408;-65
2022/03/08 03:29:27;;;;;;;6.97;4.40;;;4.00;88.60;;;;;;5048416;28;20481;-64
2022/03/08 03:31:53;;;;;;;7.28;4.78;;;4.00;88.70;;;;;;5052558;28;20504;-65
2022/03/08 03:34:18;;;;;;;8.15;5.30;;;4.00;88.80;;;;;;5048554;28;20032;-65
2022/03/08 03:36:43;;;;;;;9.27;4.50;;;4.00;88.90;;;;;;5054411;28;20364;-64
2022/03/08 03:39:09;;;;;;;9.02;4.47;;;4.00;89.10;;;;;;5051719;28;20403;-64
2022/03/08 03:41:35;;;;;;;10.10;4.55;;;4.00;89.20;;;;;;5052627;28;20021;-64
2022/03/08 03:44:01;;;;;;;9.27;5.15;;;4.00;89.30;;;;;;5051171;28;20027;-64
2022/03/08 03:46:26;;;;;;;10.35;5.30;;;3.90;89.30;;;;;;5053953;28;20029;-64
2022/03/08 03:48:52;;;;;;;8.30;4.63;;;3.90;89.50;;;;;;5052510;28;20091;-63
2022/03/08 03:51:17;;;;;;;12.38;4.78;;;3.90;89.60;;;;;;5053829;28;20100;-64
2022/03/08 03:53:44;;;;;;;8.07;4.78;;;3.90;89.60;;;;;;5051860;28;20354;-65
2022/03/08 03:56:09;;;;;;;10.77;5.43;;;4.00;89.70;;;;;;5053265;28;20037;-64
2022/03/08 03:58:35;;;;;;;9.10;5.35;;;4.00;89.80;;;;;;5051838;28;20016;-64
2022/03/08 04:01:00;;;;;;;10.98;5.50;;;3.90;89.90;;;;;;5041130;28;20022;-64
2022/03/08 04:03:26;;;;;;;13.30;5.55;;;4.00;90.20;;;;;;5040065;28;20045;-64
2022/03/08 04:05:51;;;;;;;10.88;5.55;;;4.00;90.00;;;;;;5033625;28;20373;-64
2022/03/08 04:08:20;;;;;;;12.85;6.05;;;4.00;90.00;;;;;;5033487;28;20025;-64
2022/03/08 04:10:49;;;;;;;12.93;6.47;;;4.00;90.00;;;;;;5047721;28;20025;-64
2022/03/08 04:13:15;;;;;;;13.68;5.75;;;4.00;90.00;;;;;;5046210;28;20403;-63
2022/03/08 04:15:42;;;;;;;11.88;5.95;;;4.00;90.00;;;;;;5051148;28;20037;-64
2022/03/08 04:18:07;;;;;;;11.15;5.88;;;4.00;90.00;;;;;;5051973;28;20029;-64
2022/03/08 04:20:33;;;;;;;9.68;5.80;;;4.00;90.00;;;;;;5051850;28;20508;-64
2022/03/08 04:22:59;;;;;;;11.93;6.80;;;4.10;90.00;;;;;;5051862;28;20132;-64
2022/03/08 04:25:25;;;;;;;9.05;5.22;;;4.00;90.00;;;;;;5052982;28;20025;-64
2022/03/08 04:27:51;;;;;;;11.05;5.57;;;4.00;89.80;;;;;;5052076;28;20033;-64
2022/03/08 04:30:16;;;;;;;8.25;5.40;;;4.00;89.90;;;;;;5045725;28;20389;-63
2022/03/08 04:32:42;;;;;;;11.15;5.43;;;4.00;90.00;;;;;;5039184;28;20047;-64
2022/03/08 04:35:08;;;;;;;10.25;5.72;;;4.00;90.00;;;;;;5051957;28;20024;-63
2022/03/08 04:37:33;;;;;;;10.55;5.82;;;3.90;90.00;;;;;;5032450;28;20484;-63
2022/03/08 04:39:59;;;;;;;9.68;5.40;;;3.90;90.10;;;;;;5052809;28;20032;-64
2022/03/08 04:42:24;;;;;;;10.57;5.30;;;3.90;90.10;;;;;;5051550;28;20028;-63
2022/03/08 04:44:50;;;;;;;11.10;5.72;;;3.90;90.10;;;;;;5051499;28;20017;-63
2022/03/08 04:47:15;;;;;;;13.10;7.28;;;3.80;90.20;;;;;;5052688;28;20033;-64
2022/03/08 04:49:41;;;;;;;10.80;5.63;;;3.90;90.30;;;;;;5050776;28;20433;-63
2022/03/08 04:52:07;;;;;;;10.13;6.05;;;3.90;90.30;;;;;;5052455;28;20028;-65
2022/03/08 04:54:32;;;;;;;10.40;5.53;;;3.90;90.30;;;;;;5051403;28;20025;-64
2022/03/08 04:56:57;;;;;;;11.88;5.95;;;3.90;90.40;;;;;;5052760;28;20416;-64
2022/03/08 04:59:23;;;;;;;10.43;5.40;;;3.90;90.40;;;;;;5051216;28;20109;-63
2022/03/08 05:01:49;;;;;;;10.20;5.55;;;3.90;90.50;;;;;;5046762;28;20033;-63
2022/03/08 05:04:15;;;;;;;12.48;5.47;;;3.90;90.60;;;;;;5049897;28;20120;-63
2022/03/08 05:06:41;;;;;;;11.35;5.80;;;3.90;90.60;;;;;;5051011;28;20033;-64
2022/03/08 05:09:06;;;;;;;6.82;5.13;;;3.90;90.70;;;;;;5051405;28;20032;-64
2022/03/08 05:11:32;;;;;;;8.30;5.05;;;3.80;90.70;;;;;;5052069;28;20028;-64
2022/03/08 05:13:57;;;;;;;7.13;4.97;;;3.80;90.70;;;;;;5043433;28;20053;-63
2022/03/08 05:16:23;;;;;;;7.45;4.75;;;3.80;90.80;;;;;;5033242;28;20113;-65
2022/03/08 05:18:48;;;;;;;8.55;5.20;;;3.80;90.80;;;;;;5050633;28;20366;-64
2022/03/08 05:21:14;;;;;;;13.10;5.75;;;3.80;90.90;;;;;;5052031;28;20119;-64
2022/03/08 05:23:39;;;;;;;9.93;5.93;;;3.80;90.90;;;;;;5033255;28;20612;-64
2022/03/08 05:26:05;;;;;;;8.15;5.30;;;3.80;90.90;;;;;;5052172;28;20070;-64
2022/03/08 05:28:31;;;;;;;9.60;5.32;;;3.80;90.90;;;;;;5050881;28;20472;-64
2022/03/08 05:30:57;;;;;;;10.68;5.20;;;3.80;91.00;;;;;;5052350;28;20531;-64
2022/03/08 05:33:23;;;;;;;10.82;5.63;;;3.90;91.00;;;;;;5043032;28;20034;-64
2022/03/08 05:35:48;;;;;;;11.55;5.55;;;3.80;91.00;;;;;;5046974;28;20059;-64
2022/03/08 05:38:14;;;;;;;10.27;5.82;;;3.90;91.00;;;;;;5049452;28;20033;-64
2022/03/08 05:40:39;;;;;;;11.50;5.35;;;3.90;91.10;;;;;;5051896;28;20636;-64
2022/03/08 05:43:05;;;;;;;10.57;5.63;;;3.90;91.10;;;;;;5050095;28;20029;-64
2022/03/08 05:45:31;;;;;;;11.30;6.43;;;3.90;91.10;;;;;;5051883;28;20025;-65
2022/03/08 05:47:56;;;;;;;12.13;5.88;;;3.90;91.20;;;;;;5049588;28;20385;-65
2022/03/08 05:50:22;;;;;;;11.93;6.25;;;4.00;91.20;;;;;;5051517;28;20036;-65
2022/03/08 05:52:47;;;;;;;11.75;6.35;;;3.90;91.40;;;;;;5047497;28;20039;-64
2022/03/08 05:55:13;;;;;;;13.35;6.20;;;3.90;91.20;;;;;;5050256;28;20025;-65
2022/03/08 05:57:39;;;;;;;11.07;6.32;;;3.90;91.20;;;;;;5049491;28;20686;-64
2022/03/08 06:00:06;;;;;;;12.07;5.57;;;3.90;91.40;;;;;;5045679;28;20045;-64
2022/03/08 06:02:31;;;;;;;13.07;7.15;;;3.90;91.20;;;;;;5039420;28;20048;-64
2022/03/08 06:04:57;;;;;;;11.75;6.13;;;3.90;91.30;;;;;;5036336;28;20028;-65
2022/03/08 06:07:22;;;;;;;16.00;6.95;;;3.90;91.30;;;;;;5050858;28;20036;-66
2022/03/08 06:09:48;;;;;;;14.10;7.10;;;3.90;91.30;;;;;;5049140;28;20404;-66
2022/03/08 06:12:14;;;;;;;11.63;7.30;;;3.90;91.30;;;;;;5051219;28;20111;-65
2022/03/08 06:14:39;;;;;;;14.35;7.78;;;3.90;91.30;;;;;;5043965;28;20300;-65
2022/03/08 06:17:06;;;;;;;15.75;7.55;;;4.00;91.30;;;;;;5048543;28;20087;-64
2022/03/08 06:19:33;;;;;;;13.85;8.00;;;4.00;91.30;;;;;;5046773;28;20124;-65
2022/03/08 06:21:58;;;;;;;15.90;9.55;;;4.00;91.30;;;;;;5050521;28;20082;-64
2022/03/08 06:24:24;;;;;;;16.85;9.32;;;4.00;91.30;;;;;;5048867;28;20387;-64
2022/03/08 06:26:49;;;;;;;13.80;8.52;;;4.00;91.30;;;;;;5049314;28;20040;-65
2022/03/08 06:29:15;;;;;;;14.57;7.65;;;4.10;91.30;;;;;;5049114;28;20028;-65
2022/03/08 06:31:41;;;;;;;13.75;8.27;;;4.10;91.20;;;;;;5041116;28;20472;-65
2022/03/08 06:34:06;;;;;;;14.07;7.80;;;4.10;91.10;;;;;;5039088;28;20192;-65
2022/03/08 06:36:32;;;;;;;16.63;8.15;;;4.10;91.20;;;;;;5030632;28;20071;-65
2022/03/08 06:38:57;;;;;;;16.75;8.95;;;4.10;91.20;;;;;;5047596;28;20521;-65
2022/03/08 06:41:24;;;;;;;13.60;8.55;;;4.20;91.20;;;;;;5051060;28;20017;-65
2022/03/08 06:43:50;;;;;;;17.40;8.75;;;4.20;91.20;;;;;;5048488;28;20028;-65
2022/03/08 06:46:15;;;;;;;17.00;8.88;;;4.20;91.30;;;;;;5050542;28;20492;-65
2022/03/08 06:48:41;;;;;;;15.35;8.15;;;4.30;91.40;;;;;;5037019;28;20016;-65
2022/03/08 06:51:06;;;;;;;17.05;7.70;;;4.30;91.40;;;;;;5049920;28;20063;-65
2022/03/08 06:53:32;;;;;;;17.52;8.32;;;4.30;91.40;;;;;;5042052;28;20022;-65
2022/03/08 06:55:57;;;;;;;16.02;8.00;;;4.40;91.40;;;;;;5041807;28;20025;-65
2022/03/08 06:58:23;;;;;;;13.88;7.55;;;4.40;91.40;;;;;;5049285;28;20025;-65
2022/03/08 07:00:49;;;;;;;14.90;8.10;;;4.40;91.40;;;;;;5048047;28;20492;-65
2022/03/08 07:03:14;;;;;;;20.05;7.50;;;4.50;91.40;;;;;;5043538;28;20057;-65
2022/03/08 07:05:40;;;;;;;12.90;7.07;;;4.50;91.40;;;;;;5050978;28;20408;-66
2022/03/08 07:08:06;;;;;;;11.95;7.38;;;4.60;91.40;;;;;;5052752;28;20114;-67
2022/03/08 07:10:32;;;;;;;12.02;6.80;;;4.60;91.40;;;;;;5021321;28;20072;-66
2022/03/08 07:12:57;;;;;;;16.75;7.13;;;4.60;91.40;;;;;;5037092;28;20133;-65
2022/03/08 07:15:23;;;;;;;11.60;7.15;;;4.70;91.40;;;;;;5051849;28;20472;-67
2022/03/08 07:17:48;;;;;;;12.10;6.97;;;4.70;91.40;;;;;;5053214;28;20086;-66
2022/03/08 07:20:15;;;;;;;11.65;6.78;;;4.70;91.40;;;;;;5050494;28;20025;-66
2022/03/08 07:22:41;;;;;;;10.75;6.78;;;4.80;91.40;;;;;;5047391;28;20491;-65
2022/03/08 07:25:08;;;;;;;15.93;8.75;;;4.80;91.40;;;;;;5044367;28;20033;-67
2022/03/08 07:27:34;;;;;;;11.65;7.18;;;4.80;91.40;;;;;;5044641;28;20044;-66
2022/03/08 07:29:59;;;;;;;11.18;6.97;;;4.90;91.40;;;;;;5043471;28;20109;-66
2022/03/08 07:32:25;;;;;;;14.75;7.70;;;5.00;91.40;;;;;;5043211;28;20048;-66
2022/03/08 07:34:51;;;;;;;12.30;7.95;;;5.00;91.30;;;;;;5050914;28;20017;-66
2022/03/08 07:37:16;;;;;;;15.02;9.52;;;5.10;91.30;;;;;;5050636;28;20038;-67
2022/03/08 07:39:42;;;;;;;17.60;9.82;;;5.10;91.30;;;;;;5049827;28;20452;-67
2022/03/08 07:42:07;;;;;;;15.13;8.82;;;5.20;91.20;;;;;;5051974;28;20021;-67
2022/03/08 07:44:33;;;;;;;13.35;8.70;;;5.20;91.10;;;;;;5049334;28;20037;-66
2022/03/08 07:46:59;;;;;;;15.70;9.27;;;5.20;91.10;;;;;;5052273;28;20044;-66
2022/03/08 07:49:25;;;;;;;14.05;8.48;;;5.30;91.10;;;;;;5051756;28;20029;-66
2022/03/08 07:51:51;;;;;;;13.95;8.10;;;5.30;91.10;;;;;;5052560;28;20052;-66
2022/03/08 07:54:18;;;;;;;12.57;7.93;;;5.30;91.00;;;;;;5048215;28;20075;-67
2022/03/08 07:56:43;;;;;;;13.35;7.05;;;5.30;90.90;;;;;;5051297;28;20075;-67
2022/03/08 07:59:09;;;;;;;12.25;7.82;;;5.40;90.90;;;;;;5044912;28;20033;-66
2022/03/08 08:01:35;;;;;;;12.05;8.45;;;5.50;90.90;;;;;;5059073;28;20112;-66
2022/03/08 08:04:00;;;;;;;13.00;8.30;;;5.50;90.80;;;;;;5047809;28;20045;-67
2022/03/08 08:06:26;;;;;;;14.38;8.48;;;5.60;90.80;;;;;;5040643;28;20037;-67
2022/03/08 08:08:51;;;;;;;11.57;7.95;;;5.60;90.70;;;;;;5026416;28;20031;-67
2022/03/08 08:11:16;;;;;;;16.33;8.15;;;5.70;90.70;;;;;;5051019;28;20025;-67
2022/03/08 08:13:42;;;;;;;15.00;8.40;;;5.70;90.60;;;;;;5048259;28;20620;-67
2022/03/08 08:16:07;;;;;;;12.10;7.93;;;5.70;90.60;;;;;;5037809;28;20035;-67
2022/03/08 08:18:34;;;;;;;16.42;7.72;;;5.80;90.60;;;;;;5044631;28;20685;-66
2022/03/08 08:21:01;;;;;;;13.32;7.45;;;5.80;90.50;;;;;;5051494;28;20446;-67
2022/03/08 08:23:27;;;;;;;14.27;7.43;;;5.90;90.60;;;;;;5047300;28;20499;-67
2022/03/08 08:25:52;;;;;;;10.73;5.57;;;6.00;90.50;;;;;;5039348;28;20034;-66
2022/03/08 08:28:18;;;;;;;7.60;4.55;;;6.00;90.30;;;;;;5034122;28;20033;-66
2022/03/08 08:30:44;;;;;;;11.10;4.38;;;6.20;90.10;;;;;;5050720;28;20020;-66
2022/03/08 08:33:09;;;;;;;10.02;4.38;;;6.20;89.50;;;;;;5045458;28;20540;-67
2022/03/08 08:35:35;;;;;;;7.80;4.32;;;6.20;89.10;;;;;;5042691;28;20047;-67
2022/03/08 08:38:00;;;;;;;9.40;4.68;;;6.30;89.50;;;;;;5045082;28;20584;-66
2022/03/08 08:40:26;;;;;;;10.05;4.95;;;6.40;88.80;;;;;;5052047;28;20133;-67
2022/03/08 08:42:51;;;;;;;9.40;4.80;;;6.40;88.40;;;;;;5044564;28;20068;-67
2022/03/08 08:45:17;;;;;;;8.48;4.97;;;6.40;88.10;;;;;;5042224;28;20025;-67
2022/03/08 08:47:42;;;;;;;8.43;4.63;;;6.40;87.80;;;;;;5047748;28;20043;-67
2022/03/08 08:50:08;;;;;;;8.80;4.80;;;6.50;87.50;;;;;;5045451;28;20031;-67
2022/03/08 08:52:34;;;;;;;11.95;6.45;;;6.50;87.40;;;;;;5052078;28;20030;-66
2022/03/08 08:54:59;;;;;;;11.30;5.82;;;6.50;87.00;;;;;;5048173;28;20052;-67
2022/03/08 08:57:25;;;;;;;10.52;5.60;;;6.50;87.60;;;;;;5050476;28;20468;-68
2022/03/08 08:59:50;;;;;;;9.75;6.35;;;6.60;88.30;;;;;;5049857;28;20029;-67
2022/03/08 09:02:16;;;;;;;10.52;6.00;;;6.60;87.80;;;;;;5049647;28;20044;-67
2022/03/08 09:04:41;;;;;;;12.88;6.47;;;6.70;88.10;;;;;;5050561;28;20043;-67
2022/03/08 09:07:07;;;;;;;14.05;7.15;;;6.80;87.70;;;;;;5047560;28;20045;-67
2022/03/08 09:09:32;;;;;;;10.63;7.28;;;6.80;86.80;;;;;;5044877;28;20116;-67
2022/03/08 09:11:58;;;;;;;10.10;5.95;;;6.80;86.80;;;;;;5039913;28;20021;-66
2022/03/08 09:14:24;;;;;;;12.57;7.03;;;6.80;86.60;;;;;;5046701;28;20119;-66
2022/03/08 09:16:49;;;;;;;12.52;8.05;;;6.90;86.00;;;;;;5032941;28;20389;-66
2022/03/08 09:19:15;;;;;;;13.13;7.10;;;6.90;86.20;;;;;;5044111;28;20033;-66
2022/03/08 09:21:40;;;;;;;11.88;6.60;;;6.90;85.90;;;;;;5044784;28;20067;-66
2022/03/08 09:24:06;;;;;;;11.48;6.45;;;6.90;86.30;;;;;;5040299;28;20117;-66
2022/03/08 09:26:33;;;;;;;12.05;6.60;;;7.00;86.10;;;;;;5034681;28;20052;-66
2022/03/08 09:28:58;;;;;;;10.57;6.18;;;7.10;85.90;;;;;;5048558;28;20025;-66
2022/03/08 09:31:24;;;;;;;9.75;6.35;;;7.10;84.60;;;;;;5047550;28;20070;-66
2022/03/08 09:33:50;;;;;;;10.68;6.72;;;7.10;84.30;;;;;;5021576;28;20025;-66
2022/03/08 09:36:16;;;;;;;9.20;5.57;;;7.10;84.40;;;;;;5046671;28;20488;-66
2022/03/08 09:38:42;;;;;;;8.98;5.72;;;7.20;84.40;;;;;;5028644;28;20031;-65
2022/03/08 09:41:08;;;;;;;9.38;5.80;;;7.20;84.20;;;;;;5050995;28;20021;-65
2022/03/08 09:43:37;;;;;;;8.32;4.95;;;7.30;83.70;;;;;;5058064;28;20055;-65
2022/03/08 09:46:03;;;;;;;8.40;5.22;;;7.20;82.20;;;;;;5063745;28;20071;-66
2022/03/08 09:48:29;;;;;;;7.15;4.70;;;7.30;81.80;;;;;;5056116;28;20427;-66
2022/03/08 09:50:58;;;;;;;7.25;4.28;;;7.30;81.70;;;;;;5050128;28;20029;-66
2022/03/08 09:53:23;;;;;;;8.68;4.45;;;7.30;81.20;;;;;;5040952;28;20033;-67
2022/03/08 09:55:49;;;;;;;5.68;3.92;;;7.30;81.40;;;;;;5031573;28;20075;-67
2022/03/08 09:58:19;;;;;;;6.30;3.72;;;7.40;81.50;;;;;;5024777;28;20079;-66
2022/03/08 10:00:44;;;;;;;6.82;3.92;;;7.50;82.00;;;;;;5049924;28;20070;-67
2022/03/08 10:03:11;;;;;;;7.53;4.50;;;7.60;82.10;;;;;;5049421;28;20416;-67
2022/03/08 10:05:40;;;;;;;8.65;4.43;;;7.70;82.00;;;;;;5062073;28;20107;-66
2022/03/08 10:08:11;;;;;;;9.60;4.75;;;7.70;81.20;;;;;;5054324;28;20036;-67
2022/03/08 10:10:58;;;;;;;7.00;4.30;;;7.80;80.70;;;;;;5050152;28;20032;-67
2022/03/08 10:13:32;;;;;;;6.35;4.43;;;7.80;80.40;;;;;;5048393;28;20508;-66
2022/03/08 10:16:06;;;;;;;8.02;3.67;;;7.90;80.50;;;;;;5051198;28;20048;-66
2022/03/08 10:18:38;;;;;;;6.20;3.65;;;7.90;79.50;;;;;;5044095;28;20120;-66
2022/03/08 10:21:04;;;;;;;7.63;4.05;;;8.00;79.30;;;;;;5049651;28;20613;-67
2022/03/08 10:23:41;;;;;;;6.97;3.78;;;8.00;78.70;;;;;;5046940;28;20032;-67
2022/03/08 10:26:09;;;;;;;5.63;3.40;;;8.10;78.70;;;;;;5050248;28;20108;-65
2022/03/08 10:28:44;;;;;;;5.68;3.38;;;8.20;78.30;;;;;;5049402;28;20067;-64
2022/03/08 10:31:14;;;;;;;7.32;3.97;;;8.30;77.40;;;;;;5055273;28;20040;-64
2022/03/08 10:33:40;;;;;;;5.80;3.67;;;8.30;77.30;;;;;;5045371;28;20032;-64
2022/03/08 10:36:16;;;;;;;6.10;3.38;;;8.40;76.90;;;;;;5031337;28;20121;-65
2022/03/08 10:39:02;;;;;;;6.15;3.53;;;8.40;76.30;;;;;;5050612;28;20024;-67
2022/03/08 10:41:28;;;;;;;5.85;3.55;;;8.50;75.90;;;;;;5066618;28;20143;-65
2022/03/08 10:43:56;;;;;;;7.07;3.88;;;8.50;75.70;;;;;;5031117;28;20108;-68
2022/03/08 10:46:21;;;;;;;8.55;3.90;;;8.60;75.60;;;;;;5050536;28;20033;-67
2022/03/08 10:48:47;;;;;;;5.70;3.53;;;8.60;75.30;;;;;;5040027;28;20036;-66
2022/03/08 10:51:14;;;;;;;7.85;3.88;;;8.70;75.50;;;;;;5037678;28;20036;-65
2022/03/08 10:53:43;;;;;;;7.65;3.53;;;8.80;75.30;;;;;;5049035;28;20116;-64
2022/03/08 10:56:10;;;;;;;5.55;3.38;;;8.80;75.40;;;;;;5048267;28;20043;-66
2022/03/08 10:58:49;;;;;;;4.85;3.22;;;8.90;75.10;;;;;;5043744;28;20511;-64
2022/03/08 11:01:15;;;;;;;6.93;3.53;;;9.00;74.60;;;;;;5035045;28;20045;-66
2022/03/08 11:04:00;;;;;;;9.18;3.72;;;9.00;74.30;;;;;;5040832;28;20044;-65
2022/03/08 11:06:26;;;;;;;;;;;9.10;74.00;;;;;;5049812;28;20044;-65
2022/03/08 11:08:53;;;;;;;6.15;4.13;;;9.20;75.20;;;;;;5025583;28;19913;-67
2022/03/08 11:11:20;;;;;;;6.47;3.45;;;9.20;73.90;;;;;;5035385;28;20032;-65
2022/03/08 11:13:51;;;;;;;5.78;3.45;;;9.30;74.50;;;;;;5038659;28;20029;-65
2022/03/08 11:16:18;;;;;;;6.30;3.72;;;9.40;74.00;;;;;;5042294;28;20029;-65
2022/03/08 11:18:47;;;;;;;7.95;3.67;;;9.50;73.70;;;;;;5041980;28;20025;-66
2022/03/08 11:21:14;;;;;;;7.47;3.90;;;9.50;72.60;;;;;;5047237;28;20033;-65
2022/03/08 11:23:41;;;;;;;5.88;3.53;;;9.60;72.60;;;;;;5039539;28;20171;-65
2022/03/08 11:26:10;;;;;;;6.07;3.53;;;9.70;72.70;;;;;;5046823;28;20457;-65
2022/03/08 11:28:37;;;;;;;7.47;3.70;;;9.80;73.20;;;;;;5047630;28;20032;-65
2022/03/08 11:31:02;;;;;;;6.35;3.53;;;9.80;72.50;;;;;;5038322;28;20033;-65
2022/03/08 11:33:59;;;;;;;5.38;2.92;;;9.90;72.40;;;;;;5051607;28;20020;-65
2022/03/08 11:36:43;;;;;;;4.47;2.90;;;10.00;72.00;;;;;;5020971;28;20052;-65
2022/03/08 11:39:19;;;;;;;4.63;2.75;;;10.00;71.80;;;;;;5050629;28;20017;-65
2022/03/08 11:41:54;;;;;;;6.07;3.40;;;10.10;71.90;;;;;;5033424;28;20116;-65
2022/03/08 11:44:23;;;;;;;6.95;3.25;;;10.20;71.40;;;;;;5055558;28;20186;-65
2022/03/08 11:47:05;;;;;;;5.07;3.13;;;10.20;71.40;;;;;;5031873;28;20105;-65
2022/03/08 11:49:39;;;;;;;5.40;3.25;;;10.30;71.00;;;;;;5045928;28;20034;-65
2022/03/08 11:52:16;;;;;;;18.23;4.18;;;10.30;70.80;;;;;;5055539;28;20077;-65
2022/03/08 11:54:58;;;;;;;5.47;3.17;;;10.40;70.20;;;;;;5052972;28;20443;-65
2022/03/08 11:57:50;;;;;;;5.82;2.90;;;10.40;69.70;;;;;;5035234;28;20115;-65
2022/03/08 12:00:32;;;;;;;4.88;3.17;;;10.50;69.20;;;;;;5047830;28;20053;-65
2022/03/08 12:03:00;;;;;;;6.45;2.92;;;10.50;69.20;;;;;;5037533;28;20076;-64
2022/03/08 12:05:38;;;;;;;7.15;3.05;;;10.50;68.70;;;;;;5056023;28;20029;-66
2022/03/08 12:08:22;;;;;;;5.65;2.70;;;10.50;68.30;;;;;;5054734;28;20044;-66
2022/03/08 12:11:13;;;;;;;6.00;2.88;;;10.60;68.50;;;;;;5033800;28;20026;-65
2022/03/08 12:13:44;;;;;;;5.18;2.83;;;10.60;68.20;;;;;;5045323;28;20063;-65
2022/03/08 12:16:09;;;;;;;5.25;2.70;;;10.70;68.10;;;;;;5055568;28;20383;-66
2022/03/08 12:18:36;;;;;;;5.28;2.60;;;10.70;67.40;;;;;;5064374;28;20081;-66
2022/03/08 12:21:17;;;;;;;4.97;2.42;;;10.80;67.20;;;;;;5056573;28;20028;-66
2022/03/08 12:23:54;;;;;;;4.20;2.60;;;10.80;66.50;;;;;;5041594;28;20036;-66
2022/03/08 12:26:38;;;;;;;4.25;2.50;;;10.70;65.70;;;;;;5042914;28;20040;-66
2022/03/08 12:29:33;;;;;;;4.05;2.70;;;10.80;65.60;;;;;;5050604;28;20084;-66
2022/03/08 12:31:58;;;;;;;4.88;2.75;;;10.70;65.50;;;;;;5052824;28;20060;-67
2022/03/08 12:34:32;;;;;;;7.20;2.95;;;10.70;65.40;;;;;;5049676;28;20068;-67
2022/03/08 12:37:02;;;;;;;5.32;2.90;;;10.70;65.90;;;;;;5035289;28;20025;-66
2022/03/08 12:39:49;;;;;;;5.05;3.20;;;10.80;65.60;;;;;;5040700;28;20041;-66
2022/03/08 12:42:25;;;;;;;6.68;2.83;;;10.80;64.30;;;;;;5051684;28;20020;-66
2022/03/08 12:45:01;;;;;;;4.50;2.40;;;10.80;64.10;;;;;;5052308;28;20056;-66
2022/03/08 12:47:29;;;;;;;5.18;2.78;;;10.80;64.00;;;;;;5058082;28;20032;-66
2022/03/08 12:50:00;;;;;;;4.80;2.78;;;10.80;63.70;;;;;;5047532;28;20035;-66
2022/03/08 12:52:28;;;;;;;4.90;2.58;;;10.80;63.10;;;;;;5042311;28;20037;-66